Data for 12/21/2005

Time Sea-Level Adjusted Pressure Absolute Pressure Temperature Relative Humidity Dew Point   
(mb) (inHg) (mb) (inHg) (C) (F) (%) (C) (F)
00:05 1022 30.18 852 25.16 4.2 39.6 73 -0.2 31.7
00:10 1022 30.18 852 25.16 4.2 39.6 73 -0.1 31.8
00:15 1022 30.18 852 25.16 4.2 39.5 74 -0 31.9
00:20 1022 30.18 852 25.16 4.1 39.4 74 -0.1 31.8
00:25 1022 30.18 852 25.16 4.1 39.4 74 -0.1 31.8
00:30 1022 30.18 852 25.16 4.2 39.5 73 -0.3 31.5
00:35 1022 30.18 851 25.13 4.5 40.2 71 -0.3 31.5
00:40 1022 30.18 852 25.16 4.5 40.2 73 0.1 32.1
00:45 1022 30.18 852 25.16 4 39.3 74 -0.2 31.7
00:50 1022 30.18 852 25.16 3 37.3 81 -0 31.9
00:55 1022 30.18 852 25.16 2.1 35.8 83 -0.4 31.2
01:00 1022 30.18 852 25.16 2 35.6 84 -0.4 31.2
01:05 1022 30.18 852 25.16 2.2 35.9 83 -0.4 31.2
01:10 1023 30.21 852 25.16 2.3 36.2 82 -0.4 31.2
01:15 1023 30.21 852 25.16 2.6 36.7 80 -0.4 31.3
01:20 1022 30.18 852 25.16 2.9 37.2 79 -0.3 31.4
01:25 1022 30.18 851 25.13 2.5 36.4 82 -0.3 31.5
01:30 1022 30.18 851 25.13 2 35.6 84 -0.4 31.3
01:35 1022 30.18 851 25.13 2.1 35.8 84 -0.3 31.4
01:40 1022 30.18 852 25.16 2.2 35.9 83 -0.4 31.3
01:45 1022 30.18 852 25.16 2.3 36.1 83 -0.4 31.4
01:50 1023 30.21 852 25.16 2.2 35.9 83 -0.3 31.4
01:55 1023 30.21 852 25.16 2 35.6 84 -0.4 31.3
02:00 1023 30.21 852 25.16 1.9 35.3 84 -0.5 31.1
02:05 1023 30.21 852 25.16 1.9 35.4 84 -0.5 31.1
02:10 1023 30.21 852 25.16 2.2 35.9 82 -0.6 30.9
02:15 1023 30.21 852 25.16 2.5 36.5 81 -0.5 31.1
02:20 1023 30.21 852 25.16 2.4 36.4 81 -0.5 31.2
02:25 1023 30.21 852 25.16 2 35.7 83 -0.5 31.2
02:30 1023 30.21 852 25.16 1.9 35.4 84 -0.6 31
02:35 1023 30.21 852 25.16 1.6 34.9 86 -0.4 31.2
02:40 1023 30.21 852 25.16 1.4 34.6 87 -0.5 31.1
02:45 1023 30.21 852 25.16 1.4 34.6 87 -0.4 31.3
02:50 1023 30.21 852 25.16 1.4 34.5 87 -0.5 31
02:55 1023 30.21 852 25.16 1.7 35.1 84 -0.7 30.8
03:00 1023 30.21 852 25.16 2.2 36 81 -0.7 30.8
03:05 1023 30.21 852 25.16 2.7 36.8 78 -0.7 30.7
03:10 1023 30.21 852 25.16 3 37.4 76 -0.7 30.7
03:15 1023 30.21 852 25.16 3.1 37.6 77 -0.5 31.1
03:20 1023 30.21 852 25.16 3.1 37.5 76 -0.8 30.6
03:25 1023 30.21 852 25.16 3.3 38 77 -0.4 31.3
03:30 1023 30.21 852 25.16 3.1 37.5 76 -0.8 30.6
03:35 1022 30.18 852 25.16 3.5 38.4 74 -0.6 30.9
03:40 1022 30.18 852 25.16 3.1 37.5 80 -0.1 31.8
03:45 1022 30.18 852 25.16 2.4 36.4 82 -0.3 31.5
03:50 1022 30.18 851 25.13 2.7 36.8 81 -0.3 31.4
03:55 1022 30.18 851 25.13 3.1 37.5 77 -0.5 31
04:00 1022 30.18 851 25.13 3.5 38.3 76 -0.3 31.4
04:05 1022 30.18 851 25.13 3.3 38 78 -0.1 31.8
04:10 1022 30.18 851 25.13 3 37.4 79 -0.3 31.4
04:15 1022 30.18 851 25.13 3.1 37.6 77 -0.5 31.2
04:20 1022 30.18 851 25.13 3.3 38 76 -0.5 31.1
04:25 1022 30.18 851 25.13 3.7 38.6 74 -0.6 31
04:30 1022 30.18 851 25.13 3.9 39 73 -0.5 31
04:35 1022 30.18 851 25.13 3.9 39.1 73 -0.5 31
04:40 1022 30.18 852 25.16 4 39.2 73 -0.4 31.2
04:45 1022 30.18 852 25.16 3.9 39.1 73 -0.5 31.1
04:50 1022 30.18 852 25.16 4 39.3 73 -0.4 31.3
04:55 1022 30.18 851 25.13 4.3 39.8 70 -0.6 30.9
05:00 1022 30.18 852 25.16 4.3 39.8 73 0 32
05:05 1022 30.18 852 25.16 3.8 38.8 75 -0.3 31.5
05:10 1022 30.18 852 25.16 3.8 38.9 75 -0.3 31.5
05:15 1022 30.18 851 25.13 4.1 39.3 76 0.1 32.3
05:20 1022 30.18 851 25.13 3.4 38.2 78 -0 32
05:25 1022 30.18 851 25.13 3.4 38.1 76 -0.4 31.2
05:30 1022 30.18 851 25.13 3.6 38.4 74 -0.7 30.8
05:35 1022 30.18 851 25.13 3.9 39.1 74 -0.4 31.4
05:40 1022 30.18 851 25.13 3.9 39.1 73 -0.5 31.1
05:45 1022 30.18 851 25.13 3.9 38.9 73 -0.5 31.1
05:50 1022 30.18 851 25.13 4.1 39.3 72 -0.6 31
05:55 1022 30.18 851 25.13 4.2 39.5 72 -0.4 31.2
06:00 1022 30.18 851 25.13 4.2 39.5 72 -0.4 31.2
06:05 1022 30.18 851 25.13 4.2 39.6 72 -0.4 31.2
06:10 1022 30.18 851 25.13 4.1 39.3 72 -0.5 31.1
06:15 1022 30.18 851 25.13 3.9 39 73 -0.5 31
06:20 1022 30.18 851 25.13 3.7 38.6 74 -0.6 30.9
06:25 1021 30.15 851 25.13 3.7 38.6 73 -0.7 30.7
06:30 1021 30.15 851 25.13 3.8 38.8 73 -0.6 31
06:35 1021 30.15 851 25.13 3.8 38.8 72 -0.8 30.6
06:40 1021 30.15 851 25.13 4.2 39.5 71 -0.7 30.8
06:45 1021 30.15 850 25.1 4.3 39.7 69 -0.8 30.5
06:50 1021 30.15 851 25.13 4.5 40.1 69 -0.6 30.8
06:55 1021 30.15 850 25.1 4.4 40 69 -0.7 30.7
07:00 1021 30.15 850 25.1 4.5 40.1 69 -0.7 30.7
07:05 1021 30.15 850 25.1 4.2 39.6 70 -0.7 30.7
07:10 1021 30.15 850 25.1 4 39.3 70 -0.8 30.5
07:15 1021 30.15 850 25.1 3.7 38.7 73 -0.7 30.7
07:20 1021 30.15 850 25.1 3.7 38.7 69 -1.4 29.6
07:25 1021 30.15 850 25.1 3.6 38.5 72 -1 30.2
07:30 1021 30.15 850 25.1 4 39.1 69 -1.3 29.7
07:35 1021 30.15 850 25.1 3.5 38.2 69 -1.7 28.9
07:40 1021 30.15 850 25.1 1.9 35.5 75 -2 28.5
07:45 1021 30.15 850 25.1 1.8 35.2 78 -1.7 28.9
07:50 1021 30.15 850 25.1 1.6 34.9 78 -1.8 28.7
07:55 1021 30.15 851 25.13 0.8 33.5 83 -1.8 28.7
08:00 1021 30.15 850 25.1 0.4 32.8 86 -1.6 29.2
08:05 1021 30.15 850 25.1 0.4 32.8 87 -1.5 29.2
08:10 1021 30.15 850 25.1 0.3 32.5 85 -2 28.4
08:15 1021 30.15 850 25.1 0 32 87 -2 28.5
08:20 1021 30.15 850 25.1 -0.3 31.5 87 -2.1 28.1
08:25 1021 30.15 850 25.1 -0.7 30.8 91 -2 28.5
08:30 1021 30.15 850 25.1 -0.2 31.6 89 -1.9 28.7
08:35 1021 30.15 850 25.1 0.7 33.2 84 -1.8 28.8
08:40 1021 30.15 850 25.1 1.3 34.4 81 -1.5 29.3
08:45 1021 30.15 850 25.1 1.7 35.1 79 -1.6 29.1
08:50 1021 30.15 850 25.1 1.8 35.3 78 -1.6 29
08:55 1021 30.15 851 25.13 2.2 35.9 75 -1.7 28.9
09:00 1021 30.15 851 25.13 2.3 36.2 76 -1.5 29.2
09:05 1021 30.15 851 25.13 2.7 36.9 73 -1.7 29
09:10 1021 30.15 851 25.13 3.1 37.5 75 -1 30.3
09:15 1021 30.15 851 25.13 3.3 37.9 75 -0.7 30.7
09:20 1021 30.15 851 25.13 3 37.5 71 -1.7 29
09:25 1021 30.15 851 25.13 2.9 37.3 71 -1.8 28.7
09:30 1021 30.15 851 25.13 3.5 38.2 71 -1.3 29.6
09:35 1021 30.15 851 25.13 3.3 37.9 71 -1.6 29.2
09:40 1021 30.15 851 25.13 3.8 38.8 67 -1.7 28.9
09:45 1021 30.15 850 25.1 4.3 39.7 67 -1.3 29.7
09:50 1021 30.15 850 25.1 4.4 39.8 68 -1.1 30.1
09:55 1021 30.15 850 25.1 4.4 40 68 -1 30.2
10:00 1021 30.15 850 25.1 4.5 40.2 68 -0.9 30.4
10:05 1021 30.15 850 25.1 4.7 40.5 65 -1.3 29.7
10:10 1021 30.15 850 25.1 4.4 40 66 -1.3 29.6
10:15 1021 30.15 850 25.1 3.2 37.8 71 -1.6 29.1
10:20 1021 30.15 850 25.1 3.4 38.1 70 -1.6 29.2
10:25 1021 30.15 850 25.1 3.9 39 67 -1.6 29.2
10:30 1021 30.15 850 25.1 3.9 39 69 -1.2 29.8
10:35 1021 30.15 850 25.1 4.4 40 66 -1.4 29.5
10:40 1021 30.15 850 25.1 4.8 40.6 66 -1 30.2
10:45 1021 30.15 850 25.1 5 41.1 64 -1.1 30
10:50 1021 30.15 850 25.1 5.4 41.7 63 -1.1 30
10:55 1020 30.12 849 25.07 5.2 41.4 65 -0.9 30.4
11:00 1020 30.12 849 25.07 5 40.9 65 -1.1 29.9
11:05 1020 30.12 849 25.07 5.1 41.2 64 -1.1 30.1
11:10 1020 30.12 849 25.07 5.7 42.3 63 -0.9 30.4
11:15 1020 30.12 849 25.07 5.9 42.5 63 -0.6 30.9
11:20 1020 30.12 849 25.07 5.4 41.7 65 -0.6 30.9
11:25 1020 30.12 849 25.07 5.1 41.1 66 -0.7 30.7
11:30 1020 30.12 849 25.07 5 40.9 66 -0.8 30.6
11:35 1020 30.12 849 25.07 4.8 40.7 67 -0.8 30.6
11:40 1020 30.12 849 25.07 4.9 40.9 66 -0.8 30.5
11:45 1019 30.09 849 25.07 5.5 41.9 64 -0.7 30.7
11:50 1019 30.09 849 25.07 6 42.8 62 -0.7 30.8
11:55 1019 30.09 849 25.07 6.4 43.5 62 -0.3 31.4
12:00 1019 30.09 849 25.07 6.3 43.3 62 -0.4 31.3
12:05 1019 30.09 849 25.07 6.3 43.3 62 -0.4 31.3
12:10 1019 30.09 848 25.04 6.3 43.3 62 -0.4 31.2
12:15 1019 30.09 848 25.04 6.1 43 63 -0.5 31.1
12:20 1019 30.09 848 25.04 6.2 43.2 62 -0.5 31.1
12:25 1019 30.09 848 25.04 6 42.8 64 -0.3 31.5
12:30 1019 30.09 848 25.04 6.1 42.9 62 -0.6 31
12:35 1019 30.09 848 25.04 6.3 43.3 62 -0.4 31.3
12:40 1019 30.09 848 25.04 6.3 43.3 64 -0.1 31.8
12:45 1019 30.09 848 25.04 6.1 43 63 -0.4 31.3
12:50 1019 30.09 848 25.04 6.1 43 64 -0.3 31.5
12:55 1019 30.09 848 25.04 6 42.8 64 -0.3 31.5
13:00 1019 30.09 848 25.04 6.1 43 64 -0.2 31.6
13:05 1019 30.09 848 25.04 5.4 41.6 67 -0.2 31.7
13:10 1018 30.06 847 25.01 4.7 40.4 69 -0.5 31
13:15 1018 30.06 847 25.01 4.7 40.5 68 -0.6 30.9
13:20 1018 30.06 847 25.01 4.7 40.5 69 -0.5 31
13:25 1018 30.06 847 25.01 4.9 40.9 67 -0.6 30.9
13:30 1018 30.06 847 25.01 5.2 41.3 66 -0.6 31
13:35 1018 30.06 847 25.01 5.5 41.9 65 -0.5 31
13:40 1018 30.06 847 25.01 5.7 42.2 65 -0.3 31.4
13:45 1018 30.06 847 25.01 5.5 41.8 66 -0.4 31.2
13:50 1018 30.06 847 25.01 5.5 42 66 -0.2 31.7
13:55 1018 30.06 847 25.01 5.8 42.4 64 -0.4 31.3
14:00 1018 30.06 847 25.01 6.3 43.3 63 -0.2 31.6
14:05 1018 30.06 847 25.01 6.1 42.9 65 -0 31.9
14:10 1018 30.06 847 25.01 5.6 42.1 66 -0.1 31.8
14:15 1018 30.06 847 25.01 5.5 41.9 67 -0.1 31.7
14:20 1018 30.06 847 25.01 5.6 42.1 67 -0 32
14:25 1018 30.06 847 25.01 5.5 41.9 67 -0.1 31.8
14:30 1018 30.06 847 25.01 5.1 41.3 69 -0 32
14:35 1018 30.06 847 25.01 5.2 41.3 68 -0.2 31.7
14:40 1018 30.06 847 25.01 5.3 41.5 68 -0.2 31.6
14:45 1018 30.06 847 25.01 5.2 41.3 69 0 32
14:50 1018 30.06 847 25.01 5.4 41.7 68 -0.1 31.7
14:55 1018 30.06 847 25.01 5.3 41.6 68 -0 31.9
15:00 1018 30.06 847 25.01 5.4 41.8 68 -0 32
15:05 1018 30.06 847 25.01 5.3 41.6 69 0.1 32.2
15:10 1018 30.06 847 25.01 5.3 41.5 67 -0.2 31.6
15:15 1018 30.06 847 25.01 5.2 41.4 68 -0.2 31.6
15:20 1017 30.03 847 25.01 5 41 69 -0.2 31.6
15:25 1018 30.06 847 25.01 5.1 41.2 68 -0.2 31.6
15:30 1017 30.03 847 25.01 5.3 41.5 69 -0 31.9
15:35 1017 30.03 847 25.01 5.3 41.5 67 -0.4 31.3
15:40 1017 30.03 846 24.98 5.4 41.8 65 -0.6 30.9
15:45 1017 30.03 846 24.98 5.4 41.8 65 -0.6 30.9
15:50 1017 30.03 846 24.98 5.3 41.5 67 -0.4 31.3
15:55 1017 30.03 847 25.01 5.4 41.8 67 -0.2 31.6
16:00 1017 30.03 847 25.01 5.1 41.2 68 -0.2 31.7
16:05 1017 30.03 847 25.01 5.1 41.2 68 -0.2 31.6
16:10 1017 30.03 847 25.01 5.1 41.2 67 -0.4 31.2
16:15 1018 30.06 847 25.01 4.9 40.9 69 -0.3 31.4
16:20 1018 30.06 847 25.01 5.2 41.3 68 -0.3 31.4
16:25 1018 30.06 847 25.01 5.1 41.1 68 -0.4 31.3
16:30 1018 30.06 847 25.01 5.3 41.5 69 0.1 32.1
16:35 1018 30.06 847 25.01 5.4 41.7 67 -0.3 31.4
16:40 1018 30.06 847 25.01 5.5 42 66 -0.2 31.7
16:45 1017 30.03 847 25.01 5.9 42.6 64 -0.4 31.3
16:50 1017 30.03 847 25.01 6.1 43 64 -0.1 31.8
16:55 1017 30.03 846 24.98 5.9 42.6 66 -0 31.9
17:00 1017 30.03 846 24.98 5.8 42.4 66 -0 32
17:05 1017 30.03 846 24.98 5 41 71 0.2 32.4
17:10 1017 30.03 846 24.98 4.3 39.8 72 -0.2 31.7
17:15 1017 30.03 846 24.98 4.5 40.1 71 -0.3 31.5
17:20 1017 30.03 846 24.98 5 41 68 -0.4 31.4
17:25 1017 30.03 846 24.98 5 41 71 0.1 32.2
17:30 1017 30.03 846 24.98 5.1 41.1 68 -0.4 31.3
17:35 1017 30.03 846 24.98 5.8 42.4 64 -0.4 31.2
17:40 1017 30.03 846 24.98 6.6 43.9 62 -0.2 31.6
17:45 1017 30.03 846 24.98 7 44.6 62 0.2 32.4
17:50 1017 30.03 846 24.98 7.4 45.3 59 -0.2 31.7
17:55 1016 30 846 24.98 7.8 46 58 0.2 32.3
18:00 1016 30 846 24.98 7.4 45.4 60 0.3 32.5
18:05 1016 30 846 24.98 7.2 44.9 61 0.1 32.2
18:10 1016 30 846 24.98 7.3 45.2 61 0.2 32.4
18:15 1016 30 846 24.98 7.6 45.6 60 0.3 32.5
18:20 1016 30 846 24.98 7.7 45.9 59 0.2 32.3
18:25 1016 30 845 24.95 7.5 45.5 60 0.2 32.4
18:30 1016 30 845 24.95 6.6 43.9 67 0.9 33.6
18:35 1016 30 845 24.95 5.4 41.8 68 0 32.1
18:40 1016 30 845 24.95 5.6 42 68 0.1 32.2
18:45 1016 30 845 24.95 6 42.8 65 -0.2 31.7
18:50 1016 30 845 24.95 7.3 45.1 60 -0 32
18:55 1016 30 845 24.95 7.5 45.6 60 0.4 32.7
19:00 1016 30 845 24.95 7 44.7 62 0.4 32.6
19:05 1016 30 845 24.95 7 44.6 62 0.2 32.4
19:10 1016 30 845 24.95 6.4 43.6 65 0.5 32.8
19:15 1016 30 845 24.95 6.2 43.2 65 0.1 32.1
19:20 1016 30 845 24.95 6.9 44.5 62 0.2 32.3
19:25 1016 30 845 24.95 6.9 44.4 63 0.4 32.8
19:30 1016 30 845 24.95 6.8 44.3 63 0.3 32.5
19:35 1016 30 845 24.95 7 44.6 60 -0.1 31.8
19:40 1016 30 845 24.95 8.2 46.8 56 -0.1 31.8
19:45 1016 30 845 24.95 8.9 47.9 54 0.2 32.4
19:50 1016 30 845 24.95 8.9 48.1 55 0.3 32.5
19:55 1016 30 845 24.95 9 48.2 54 0.1 32.2
20:00 1016 30 845 24.95 9.1 48.4 54 0.4 32.7
20:05 1015 29.97 845 24.95 8.9 48 55 0.4 32.8
20:10 1015 29.97 845 24.95 8.3 47 58 0.6 33.1
20:15 1015 29.97 845 24.95 7.5 45.6 62 0.7 33.3
20:20 1015 29.97 844 24.92 6.5 43.6 67 0.8 33.5
20:25 1015 29.97 844 24.92 6.1 42.9 64 -0.3 31.5
20:30 1015 29.97 844 24.92 6.9 44.4 60 -0.3 31.5
20:35 1015 29.97 844 24.92 8.1 46.5 57 0 32.1
20:40 1015 29.97 844 24.92 7.8 46.1 60 0.6 33
20:45 1015 29.97 844 24.92 7.7 45.9 59 0.3 32.6
20:50 1015 29.97 844 24.92 7.3 45.2 61 0.3 32.6
20:55 1015 29.97 844 24.92 7.4 45.4 59 0 32
21:00 1015 29.97 844 24.92 7.7 45.9 59 0.1 32.2
21:05 1014 29.94 844 24.92 7.4 45.3 59 -0.1 31.9
21:10 1014 29.94 844 24.92 8 46.4 56 -0.3 31.5
21:15 1014 29.94 844 24.92 8.8 47.9 53 -0.2 31.6
21:20 1014 29.94 844 24.92 8.9 48.1 55 0.4 32.6
21:25 1015 29.97 844 24.92 8.8 47.8 54 0 32.1
21:30 1015 29.97 844 24.92 8.9 48 54 0.1 32.2
21:35 1014 29.94 844 24.92 8.6 47.6 57 0.5 32.9
21:40 1014 29.94 844 24.92 8.3 46.9 55 -0.3 31.5
21:45 1014 29.94 843 24.89 9.1 48.4 53 0.1 32.2
21:50 1014 29.94 843 24.89 9.1 48.3 54 0.2 32.4
21:55 1014 29.94 843 24.89 9 48.1 53 -0 32
22:00 1014 29.94 843 24.89 9.3 48.7 53 0.1 32.2
22:05 1014 29.94 843 24.89 9.4 49 52 0.1 32.2
22:10 1014 29.94 843 24.89 9.2 48.6 53 0.3 32.5
22:15 1014 29.94 843 24.89 9 48.3 53 -0.1 31.9
22:20 1014 29.94 843 24.89 8.9 48.1 55 0.3 32.6
22:25 1014 29.94 843 24.89 8.6 47.6 55 0.1 32.1
22:30 1014 29.94 843 24.89 8.6 47.5 55 0.2 32.3
22:35 1014 29.94 843 24.89 8.2 46.8 56 0.1 32.2
22:40 1014 29.94 843 24.89 8.4 47.2 55 -0.1 31.8
22:45 1014 29.94 843 24.89 8.4 47.2 56 0.1 32.3
22:50 1014 29.94 843 24.89 8.2 46.7 57 0.2 32.3
22:55 1014 29.94 843 24.89 8 46.4 56 -0.1 31.7
23:00 1014 29.94 843 24.89 7.6 45.6 57 -0.5 31.1
23:05 1014 29.94 843 24.89 8.3 46.9 57 0.3 32.5
23:10 1013 29.91 843 24.89 8 46.4 56 -0.2 31.7
23:15 1013 29.91 843 24.89 8.7 47.7 53 -0.4 31.3
23:20 1013 29.91 842 24.86 9.8 49.6 47 -0.9 30.4
23:25 1013 29.91 842 24.86 9.7 49.4 54 0.8 33.5
23:30 1013 29.91 842 24.86 7.7 45.9 58 0.1 32.2
23:35 1013 29.91 842 24.86 7.4 45.3 58 -0.4 31.4
23:40 1013 29.91 842 24.86 7.6 45.7 58 -0.1 31.9
23:45 1013 29.91 842 24.86 7 44.7 62 0.2 32.4
23:50 1013 29.91 842 24.86 6.6 43.8 63 0.1 32.1
23:55 1013 29.91 842 24.86 6.1 42.9 64 -0.1 31.8
24:00 1013 29.91 842 24.86 6.1 43 63 -0.3 31.4